X  Sluiten METAR luchtvaart weer gegevens      EHAM Amsterdam Airport Schiphol
Temperatuur
11°C Temperatuur
9°C Dauwpunt
88% Vochtigheid



Wind
13 KM/U
8 MPH
4 M/S
7 KTS



190°
Z
Huidig weer

Helder Helder
Luchtdruk 1016.93 (hPa) - 30.03 (inHg)
Zicht 6 (mijl) - 9.7 (km)
Vliegveld
Vliegveld code EHAM

Locatie : Amsterdam Airport Schiphol
Afstand: 40 (km)

Metar:
EHAM 130425Z 19007KT CAVOK 11/09 Q1017 NOSIG

Tijd: 13-06-2024 06:25 CEST